Idaho Falls, ID

4:24 AM MDT on July 11, 2014 (GMT -0600)
Driggs (KDIJ) Elev 6227 ft | 43.74 °N, 111.10 °W | Change Station

Current weather conditions updated 28 minutes ago

Clear
Clear
56 °F
Feels Like 56 °F
N
0
Wind Variable Wind from North

Today is forecast to be Warmer than yesterday.

Today
High -- | Low -- °F
--% Chance of Precip.
Yesterday
High -- | Low -- °F
Precip. -- in
5:56 AM 9:08 PM
Waxing Gibbous, 98% visible
Pressure 29.87 in
Visibility 10.0 miles
Clouds Clear
Dew Point 45 °F
Humidity 67%
Rainfall 0.00 in
Snow Depth Not available.
UV 0 out of 12
Pollen 5.50 out of 12
PM2.5 Good
Flu Activity Sporadic
METAR KDIJ 110956Z AUTO 00000KT 10SM CLR 13/07 A3014 RMK AO2 T01330072 SLP115

More Conditions Fewer Conditions

Pressure 29.87 in
Visibility 10.0 miles
Clouds Clear
Dew Point 45 °F
Humidity 67%
Rainfall 0.00 in
Snow Depth Not available.
UV 0 out of 12
Pollen 5.50 out of 12
PM2.5 Good
Flu Activity Sporadic
METAR KDIJ 110956Z AUTO 00000KT 10SM CLR 13/07 A3014 RMK AO2 T01330072 SLP115

More Conditions Fewer Conditions

10-Day Weather Forecast

Almanac

Astronomy

Jul. 11, 2014 Rise Set
Actual Time 5:56 AM MDT 9:08 PM MDT
Civil Twilight 5:21 AM MDT 9:43 PM MDT
Nautical Twilight 4:36 AM MDT 10:28 PM MDT
Astronomical Twilight 3:41 AM MDT 11:22 PM MDT
Moon 8:19 PM MDT 5:14 AM MDT
Length of Visible Light 16h 21m
Length of Day
15h 11m
Tomorrow will be 1m 21s shorter.
Waxing Gibbous, 98% of the Moon is Illuminated
Today
Waxing Gibbous
Jul 12
Full
Jul 18
Last Quarter
Jul 26
New
Aug 3
First Quarter

Today's Extremes

State Highs State Lows

Community

WunderPhotos

Upload Photos

1,732,407 photos uploaded!

WunderBlogs® & News

Nearby

Air Quality

  Air Quality AQ Index Pollutant
Yesterday Good
PM2.5
Current Good
PM2.5
Friday Good
PM2.5

Snow Depth

Station Depth Elevation
Sheep Mountain 0 in 6570 ft
Somsen Ranch 0 in 6800 ft
Wildhorse Divide 0 in 6490 ft
Island Park 0 in 6290 ft
White Elephant 0 in 7710 ft

Earthquake Activity

City Distance Mag. Time & Date
No recent earthquake activity has been reported nearby.
Minimum magnitude displayed is 2.5.

Coastal Water Temperatures

Place Temperature
No Stations Reporting

Nearby Weather Stations

Station Location Temp. Dew Point Humidity Wind Precip. Elev Updated Type
Idaho Falls High School, Idaho Falls, ID 62.6 °F 47 °F 57% West  at  5.8 mph 0.00 in / hr 4715 ft 4:24 AM MDT Rapid Fire
Garfield Area, Rigby, ID 59.8 °F 50 °F 69% East  at  0.0 mph 0.00 in / hr 4820 ft 4:21 AM MDT Normal
12th Street, Idaho Falls, ID 62.2 °F 49 °F 61% WNW  at  0.0 mph 0.00 in / hr 4711 ft 4:24 AM MDT Rapid Fire
MesoWest SHELEY , Shelley, ID 61 °F - - North  at  - 0.00 in / hr 4625 ft 1:45 AM MDT MADIS
RAWS MOODY ID, Ririe, ID 57 °F 46 °F 66% SSW  at  4 mph 0.00 in / hr 6837 ft 3:25 AM MDT MADIS

Show More Stations Show Fewer Stations